sensor_id;sensor_type;location;lat;lon;timestamp;temperature;humidity
831;DHT22;397;50.564;7.272;2022-08-21T00:01:19;17.30;99.90
831;DHT22;397;50.564;7.272;2022-08-21T00:03:48;17.20;99.90
831;DHT22;397;50.564;7.272;2022-08-21T00:06:16;17.00;99.90
831;DHT22;397;50.564;7.272;2022-08-21T00:08:44;17.00;99.90
831;DHT22;397;50.564;7.272;2022-08-21T00:11:12;17.10;99.90
831;DHT22;397;50.564;7.272;2022-08-21T00:13:40;16.80;99.90
831;DHT22;397;50.564;7.272;2022-08-21T00:16:08;16.70;99.90
831;DHT22;397;50.564;7.272;2022-08-21T00:18:36;16.70;99.90
831;DHT22;397;50.564;7.272;2022-08-21T00:21:04;16.70;99.90
831;DHT22;397;50.564;7.272;2022-08-21T00:23:33;16.60;99.90
831;DHT22;397;50.564;7.272;2022-08-21T00:26:01;16.90;99.90
831;DHT22;397;50.564;7.272;2022-08-21T00:28:29;17.00;99.90
831;DHT22;397;50.564;7.272;2022-08-21T00:30:57;17.00;99.90
831;DHT22;397;50.564;7.272;2022-08-21T00:33:26;16.90;99.90
831;DHT22;397;50.564;7.272;2022-08-21T00:35:53;16.90;99.90
831;DHT22;397;50.564;7.272;2022-08-21T00:38:21;16.90;99.90
831;DHT22;397;50.564;7.272;2022-08-21T00:40:52;16.90;99.90
831;DHT22;397;50.564;7.272;2022-08-21T00:43:25;17.00;99.90
831;DHT22;397;50.564;7.272;2022-08-21T00:45:54;17.00;99.90
831;DHT22;397;50.564;7.272;2022-08-21T00:48:22;16.80;99.90
831;DHT22;397;50.564;7.272;2022-08-21T00:51:00;16.80;99.90
831;DHT22;397;50.564;7.272;2022-08-21T00:53:27;16.70;99.90
831;DHT22;397;50.564;7.272;2022-08-21T00:55:56;16.90;99.90
831;DHT22;397;50.564;7.272;2022-08-21T00:58:26;16.90;99.90
831;DHT22;397;50.564;7.272;2022-08-21T01:00:54;16.90;99.90
831;DHT22;397;50.564;7.272;2022-08-21T01:03:23;16.70;99.90
831;DHT22;397;50.564;7.272;2022-08-21T01:05:52;16.50;99.90
831;DHT22;397;50.564;7.272;2022-08-21T01:08:20;16.30;99.90
831;DHT22;397;50.564;7.272;2022-08-21T01:10:48;16.50;99.90
831;DHT22;397;50.564;7.272;2022-08-21T01:13:18;16.30;99.90
831;DHT22;397;50.564;7.272;2022-08-21T01:15:48;16.20;99.90
831;DHT22;397;50.564;7.272;2022-08-21T01:18:19;16.20;99.90
831;DHT22;397;50.564;7.272;2022-08-21T01:23:29;16.40;99.90
831;DHT22;397;50.564;7.272;2022-08-21T01:25:57;16.40;99.90
831;DHT22;397;50.564;7.272;2022-08-21T01:28:24;16.30;99.90
831;DHT22;397;50.564;7.272;2022-08-21T01:30:54;16.30;99.90
831;DHT22;397;50.564;7.272;2022-08-21T01:33:24;16.20;99.90
831;DHT22;397;50.564;7.272;2022-08-21T01:35:52;16.40;99.90
831;DHT22;397;50.564;7.272;2022-08-21T01:38:19;16.40;99.90
831;DHT22;397;50.564;7.272;2022-08-21T01:40:47;16.30;99.90
831;DHT22;397;50.564;7.272;2022-08-21T01:43:15;16.30;99.90
831;DHT22;397;50.564;7.272;2022-08-21T01:45:42;16.30;99.90
831;DHT22;397;50.564;7.272;2022-08-21T01:48:10;16.00;99.90
831;DHT22;397;50.564;7.272;2022-08-21T01:50:38;15.80;99.90
831;DHT22;397;50.564;7.272;2022-08-21T01:53:05;15.60;99.90
831;DHT22;397;50.564;7.272;2022-08-21T01:55:33;15.50;99.90
831;DHT22;397;50.564;7.272;2022-08-21T01:58:00;15.50;99.90
831;DHT22;397;50.564;7.272;2022-08-21T02:00:28;15.50;99.90
831;DHT22;397;50.564;7.272;2022-08-21T02:02:55;15.60;99.90
831;DHT22;397;50.564;7.272;2022-08-21T02:05:23;15.80;99.90
831;DHT22;397;50.564;7.272;2022-08-21T02:07:52;15.70;99.90
831;DHT22;397;50.564;7.272;2022-08-21T02:10:23;15.50;99.90
831;DHT22;397;50.564;7.272;2022-08-21T02:12:53;15.40;99.90
831;DHT22;397;50.564;7.272;2022-08-21T02:15:21;15.30;99.90
831;DHT22;397;50.564;7.272;2022-08-21T02:17:52;15.50;99.90
831;DHT22;397;50.564;7.272;2022-08-21T02:20:24;15.70;99.90
831;DHT22;397;50.564;7.272;2022-08-21T02:22:51;15.50;99.90
831;DHT22;397;50.564;7.272;2022-08-21T02:25:20;15.60;99.90
831;DHT22;397;50.564;7.272;2022-08-21T02:27:48;15.60;99.90
831;DHT22;397;50.564;7.272;2022-08-21T02:30:28;15.80;99.90
831;DHT22;397;50.564;7.272;2022-08-21T02:32:57;15.80;99.90
831;DHT22;397;50.564;7.272;2022-08-21T02:35:26;15.90;99.90
831;DHT22;397;50.564;7.272;2022-08-21T02:37:58;15.90;99.90
831;DHT22;397;50.564;7.272;2022-08-21T02:40:27;15.70;99.90
831;DHT22;397;50.564;7.272;2022-08-21T02:42:55;15.60;99.90
831;DHT22;397;50.564;7.272;2022-08-21T02:45:23;15.60;99.90
831;DHT22;397;50.564;7.272;2022-08-21T02:47:52;15.60;99.90
831;DHT22;397;50.564;7.272;2022-08-21T02:50:23;15.50;99.90
831;DHT22;397;50.564;7.272;2022-08-21T02:52:51;15.70;99.90
831;DHT22;397;50.564;7.272;2022-08-21T02:55:20;15.70;99.90
831;DHT22;397;50.564;7.272;2022-08-21T02:57:48;15.70;99.90
831;DHT22;397;50.564;7.272;2022-08-21T03:00:16;15.20;99.90
831;DHT22;397;50.564;7.272;2022-08-21T03:02:43;15.30;99.90
831;DHT22;397;50.564;7.272;2022-08-21T03:05:14;15.10;99.90
831;DHT22;397;50.564;7.272;2022-08-21T03:07:46;15.00;99.90
831;DHT22;397;50.564;7.272;2022-08-21T03:10:13;15.10;99.90
831;DHT22;397;50.564;7.272;2022-08-21T03:12:41;15.00;99.90
831;DHT22;397;50.564;7.272;2022-08-21T03:15:11;15.10;99.90
831;DHT22;397;50.564;7.272;2022-08-21T03:17:39;15.20;99.90
831;DHT22;397;50.564;7.272;2022-08-21T03:20:09;15.20;99.90
831;DHT22;397;50.564;7.272;2022-08-21T03:22:36;15.20;99.90
831;DHT22;397;50.564;7.272;2022-08-21T03:25:06;15.00;99.90
831;DHT22;397;50.564;7.272;2022-08-21T03:27:34;14.80;99.90
831;DHT22;397;50.564;7.272;2022-08-21T03:30:05;14.70;99.90
831;DHT22;397;50.564;7.272;2022-08-21T03:32:33;14.90;99.90
831;DHT22;397;50.564;7.272;2022-08-21T03:35:03;15.10;99.90
831;DHT22;397;50.564;7.272;2022-08-21T03:37:31;15.20;99.90
831;DHT22;397;50.564;7.272;2022-08-21T03:39:59;15.30;99.90
831;DHT22;397;50.564;7.272;2022-08-21T03:42:26;15.30;99.90
831;DHT22;397;50.564;7.272;2022-08-21T03:44:54;15.20;99.90
831;DHT22;397;50.564;7.272;2022-08-21T03:47:22;15.20;99.90
831;DHT22;397;50.564;7.272;2022-08-21T03:49:49;14.90;99.90
831;DHT22;397;50.564;7.272;2022-08-21T03:52:17;14.90;99.90
831;DHT22;397;50.564;7.272;2022-08-21T03:54:45;15.00;99.90
831;DHT22;397;50.564;7.272;2022-08-21T03:57:13;15.00;99.90
831;DHT22;397;50.564;7.272;2022-08-21T03:59:41;15.00;99.90
831;DHT22;397;50.564;7.272;2022-08-21T04:02:09;15.10;99.90
831;DHT22;397;50.564;7.272;2022-08-21T04:04:37;15.10;99.90
831;DHT22;397;50.564;7.272;2022-08-21T04:07:05;14.90;99.90
831;DHT22;397;50.564;7.272;2022-08-21T04:09:32;15.00;99.90
831;DHT22;397;50.564;7.272;2022-08-21T04:12:00;15.00;99.90
831;DHT22;397;50.564;7.272;2022-08-21T04:14:28;15.10;99.90
831;DHT22;397;50.564;7.272;2022-08-21T04:16:56;15.00;99.90
831;DHT22;397;50.564;7.272;2022-08-21T04:19:24;15.00;99.90
831;DHT22;397;50.564;7.272;2022-08-21T04:21:51;15.00;99.90
831;DHT22;397;50.564;7.272;2022-08-21T04:24:19;14.90;99.90
831;DHT22;397;50.564;7.272;2022-08-21T04:26:46;15.00;99.90
831;DHT22;397;50.564;7.272;2022-08-21T04:29:14;14.40;99.90
831;DHT22;397;50.564;7.272;2022-08-21T04:31:41;14.10;99.90
831;DHT22;397;50.564;7.272;2022-08-21T04:34:10;14.40;99.90
831;DHT22;397;50.564;7.272;2022-08-21T04:36:37;14.60;99.90
831;DHT22;397;50.564;7.272;2022-08-21T04:39:05;14.80;99.90
831;DHT22;397;50.564;7.272;2022-08-21T04:41:32;14.90;99.90
831;DHT22;397;50.564;7.272;2022-08-21T04:44:00;14.60;99.90
831;DHT22;397;50.564;7.272;2022-08-21T04:46:27;14.70;99.90
831;DHT22;397;50.564;7.272;2022-08-21T04:48:55;14.80;99.90
831;DHT22;397;50.564;7.272;2022-08-21T04:51:25;14.50;99.90
831;DHT22;397;50.564;7.272;2022-08-21T04:54:01;14.70;99.90
831;DHT22;397;50.564;7.272;2022-08-21T04:56:39;14.90;99.90
831;DHT22;397;50.564;7.272;2022-08-21T04:59:05;15.00;99.90
831;DHT22;397;50.564;7.272;2022-08-21T05:01:35;14.70;99.90
831;DHT22;397;50.564;7.272;2022-08-21T05:04:05;14.80;99.90
831;DHT22;397;50.564;7.272;2022-08-21T05:06:36;14.60;99.90
831;DHT22;397;50.564;7.272;2022-08-21T05:09:05;15.00;99.90
831;DHT22;397;50.564;7.272;2022-08-21T05:11:33;15.30;99.90
831;DHT22;397;50.564;7.272;2022-08-21T05:14:01;15.30;99.90
831;DHT22;397;50.564;7.272;2022-08-21T05:16:29;15.10;99.90
831;DHT22;397;50.564;7.272;2022-08-21T05:18:56;15.40;99.90
831;DHT22;397;50.564;7.272;2022-08-21T05:21:25;15.60;99.90
831;DHT22;397;50.564;7.272;2022-08-21T05:23:52;16.10;99.90
831;DHT22;397;50.564;7.272;2022-08-21T05:26:20;16.70;99.90
831;DHT22;397;50.564;7.272;2022-08-21T05:28:47;16.80;99.90
831;DHT22;397;50.564;7.272;2022-08-21T05:31:14;17.30;99.90
831;DHT22;397;50.564;7.272;2022-08-21T05:33:42;17.60;99.90
831;DHT22;397;50.564;7.272;2022-08-21T05:36:09;18.30;99.90
831;DHT22;397;50.564;7.272;2022-08-21T05:38:37;18.20;99.90
831;DHT22;397;50.564;7.272;2022-08-21T05:41:04;18.40;99.90
831;DHT22;397;50.564;7.272;2022-08-21T05:43:33;18.20;99.90
831;DHT22;397;50.564;7.272;2022-08-21T05:46:06;18.40;99.90
831;DHT22;397;50.564;7.272;2022-08-21T05:48:35;18.90;99.90
831;DHT22;397;50.564;7.272;2022-08-21T05:51:09;19.20;99.90
831;DHT22;397;50.564;7.272;2022-08-21T05:53:37;19.80;99.90
831;DHT22;397;50.564;7.272;2022-08-21T05:58:53;19.50;99.90
831;DHT22;397;50.564;7.272;2022-08-21T06:01:20;19.00;99.90
831;DHT22;397;50.564;7.272;2022-08-21T06:03:48;19.30;99.90
831;DHT22;397;50.564;7.272;2022-08-21T06:06:16;19.80;99.90
831;DHT22;397;50.564;7.272;2022-08-21T06:08:43;20.00;99.90
831;DHT22;397;50.564;7.272;2022-08-21T06:11:11;20.30;99.90
831;DHT22;397;50.564;7.272;2022-08-21T06:13:39;20.20;99.90
831;DHT22;397;50.564;7.272;2022-08-21T06:16:15;20.60;99.90
831;DHT22;397;50.564;7.272;2022-08-21T06:18:44;19.80;99.90
831;DHT22;397;50.564;7.272;2022-08-21T06:21:12;19.30;99.90
831;DHT22;397;50.564;7.272;2022-08-21T06:23:41;19.40;99.90
831;DHT22;397;50.564;7.272;2022-08-21T06:26:11;19.90;99.90
831;DHT22;397;50.564;7.272;2022-08-21T06:28:40;19.90;99.90
831;DHT22;397;50.564;7.272;2022-08-21T06:31:19;19.70;99.90
831;DHT22;397;50.564;7.272;2022-08-21T06:33:47;19.80;99.90
831;DHT22;397;50.564;7.272;2022-08-21T06:36:15;20.20;99.90
831;DHT22;397;50.564;7.272;2022-08-21T06:38:43;20.70;99.90
831;DHT22;397;50.564;7.272;2022-08-21T06:41:11;20.40;99.90
831;DHT22;397;50.564;7.272;2022-08-21T06:43:39;20.40;99.90
831;DHT22;397;50.564;7.272;2022-08-21T06:46:07;20.80;99.90
831;DHT22;397;50.564;7.272;2022-08-21T06:48:35;20.80;99.90
831;DHT22;397;50.564;7.272;2022-08-21T06:51:03;20.80;99.90
831;DHT22;397;50.564;7.272;2022-08-21T06:53:31;20.40;99.90
831;DHT22;397;50.564;7.272;2022-08-21T06:55:59;20.70;99.90
831;DHT22;397;50.564;7.272;2022-08-21T06:58:27;20.10;99.90
831;DHT22;397;50.564;7.272;2022-08-21T07:00:55;20.20;99.90
831;DHT22;397;50.564;7.272;2022-08-21T07:03:36;20.20;99.90
831;DHT22;397;50.564;7.272;2022-08-21T07:05:59;20.60;99.90
831;DHT22;397;50.564;7.272;2022-08-21T07:08:28;20.50;99.90
831;DHT22;397;50.564;7.272;2022-08-21T07:10:58;20.90;99.90
831;DHT22;397;50.564;7.272;2022-08-21T07:13:26;20.60;99.90
831;DHT22;397;50.564;7.272;2022-08-21T07:15:54;20.50;99.90
831;DHT22;397;50.564;7.272;2022-08-21T07:18:21;20.70;99.90
831;DHT22;397;50.564;7.272;2022-08-21T07:20:49;20.90;99.90
831;DHT22;397;50.564;7.272;2022-08-21T07:23:28;20.80;99.90
831;DHT22;397;50.564;7.272;2022-08-21T07:25:56;21.20;99.90
831;DHT22;397;50.564;7.272;2022-08-21T07:28:25;20.40;99.90
831;DHT22;397;50.564;7.272;2022-08-21T07:30:56;20.50;99.90
831;DHT22;397;50.564;7.272;2022-08-21T07:33:25;20.50;99.90
831;DHT22;397;50.564;7.272;2022-08-21T07:35:53;20.40;99.90
831;DHT22;397;50.564;7.272;2022-08-21T07:38:22;20.40;99.90
831;DHT22;397;50.564;7.272;2022-08-21T07:40:51;20.50;99.90
831;DHT22;397;50.564;7.272;2022-08-21T07:43:19;21.00;99.90
831;DHT22;397;50.564;7.272;2022-08-21T07:45:49;20.80;99.90
831;DHT22;397;50.564;7.272;2022-08-21T07:48:16;21.00;99.90
831;DHT22;397;50.564;7.272;2022-08-21T07:50:44;21.00;99.90
831;DHT22;397;50.564;7.272;2022-08-21T07:53:11;21.20;99.90
831;DHT22;397;50.564;7.272;2022-08-21T07:55:39;20.90;99.90
831;DHT22;397;50.564;7.272;2022-08-21T07:58:06;20.90;99.90
831;DHT22;397;50.564;7.272;2022-08-21T08:00:34;21.30;99.90
831;DHT22;397;50.564;7.272;2022-08-21T08:03:01;21.20;99.90
831;DHT22;397;50.564;7.272;2022-08-21T08:05:31;21.00;99.90
831;DHT22;397;50.564;7.272;2022-08-21T08:07:59;21.30;99.90
831;DHT22;397;50.564;7.272;2022-08-21T08:10:26;21.40;99.90
831;DHT22;397;50.564;7.272;2022-08-21T08:12:54;21.40;99.90
831;DHT22;397;50.564;7.272;2022-08-21T08:15:24;21.60;99.90
831;DHT22;397;50.564;7.272;2022-08-21T08:17:52;21.80;99.90
831;DHT22;397;50.564;7.272;2022-08-21T08:20:21;21.60;99.90
831;DHT22;397;50.564;7.272;2022-08-21T08:22:49;21.80;99.90
831;DHT22;397;50.564;7.272;2022-08-21T08:25:19;21.90;99.90
831;DHT22;397;50.564;7.272;2022-08-21T08:27:47;22.00;99.90
831;DHT22;397;50.564;7.272;2022-08-21T08:30:16;22.20;99.90
831;DHT22;397;50.564;7.272;2022-08-21T08:32:45;22.30;99.90
831;DHT22;397;50.564;7.272;2022-08-21T08:35:13;22.40;99.90
831;DHT22;397;50.564;7.272;2022-08-21T08:37:41;22.20;99.90
831;DHT22;397;50.564;7.272;2022-08-21T08:40:14;22.30;99.90
831;DHT22;397;50.564;7.272;2022-08-21T08:42:41;22.30;99.90
831;DHT22;397;50.564;7.272;2022-08-21T08:45:12;22.50;99.90
831;DHT22;397;50.564;7.272;2022-08-21T08:47:45;22.80;99.90
831;DHT22;397;50.564;7.272;2022-08-21T08:52:52;22.60;99.90
831;DHT22;397;50.564;7.272;2022-08-21T08:55:28;22.90;99.90
831;DHT22;397;50.564;7.272;2022-08-21T08:57:55;22.90;99.90
831;DHT22;397;50.564;7.272;2022-08-21T09:00:24;22.80;99.90
831;DHT22;397;50.564;7.272;2022-08-21T09:02:54;23.40;99.90
831;DHT22;397;50.564;7.272;2022-08-21T09:05:43;23.10;99.90
831;DHT22;397;50.564;7.272;2022-08-21T09:08:43;23.00;99.90
831;DHT22;397;50.564;7.272;2022-08-21T09:11:27;23.30;99.90
831;DHT22;397;50.564;7.272;2022-08-21T09:14:16;23.10;99.90
831;DHT22;397;50.564;7.272;2022-08-21T09:16:47;23.20;99.90
831;DHT22;397;50.564;7.272;2022-08-21T09:19:36;23.40;99.90
831;DHT22;397;50.564;7.272;2022-08-21T09:22:17;23.50;99.90
831;DHT22;397;50.564;7.272;2022-08-21T09:25:01;23.50;99.90
831;DHT22;397;50.564;7.272;2022-08-21T09:27:25;23.70;99.90
831;DHT22;397;50.564;7.272;2022-08-21T09:29:54;23.80;99.90
831;DHT22;397;50.564;7.272;2022-08-21T09:32:28;23.80;99.90
831;DHT22;397;50.564;7.272;2022-08-21T09:35:09;23.80;99.90
831;DHT22;397;50.564;7.272;2022-08-21T09:38:00;24.00;99.90
831;DHT22;397;50.564;7.272;2022-08-21T09:40:37;24.10;99.90
831;DHT22;397;50.564;7.272;2022-08-21T09:43:24;24.10;99.90
831;DHT22;397;50.564;7.272;2022-08-21T09:45:49;24.00;99.90
831;DHT22;397;50.564;7.272;2022-08-21T09:48:25;24.20;99.90
831;DHT22;397;50.564;7.272;2022-08-21T09:50:53;24.30;99.90
831;DHT22;397;50.564;7.272;2022-08-21T09:53:27;24.10;99.90
831;DHT22;397;50.564;7.272;2022-08-21T09:55:58;24.00;99.90
831;DHT22;397;50.564;7.272;2022-08-21T09:58:47;23.90;99.90
831;DHT22;397;50.564;7.272;2022-08-21T10:01:41;24.00;99.90
831;DHT22;397;50.564;7.272;2022-08-21T10:04:07;24.10;99.90
831;DHT22;397;50.564;7.272;2022-08-21T10:06:34;24.10;99.90
831;DHT22;397;50.564;7.272;2022-08-21T10:09:11;24.10;99.90
831;DHT22;397;50.564;7.272;2022-08-21T10:11:39;24.10;99.90
831;DHT22;397;50.564;7.272;2022-08-21T10:14:14;24.10;99.90
831;DHT22;397;50.564;7.272;2022-08-21T10:16:50;24.10;99.90
831;DHT22;397;50.564;7.272;2022-08-21T10:24:28;24.50;99.90
831;DHT22;397;50.564;7.272;2022-08-21T10:27:03;24.70;99.90
831;DHT22;397;50.564;7.272;2022-08-21T10:29:58;24.80;99.90
831;DHT22;397;50.564;7.272;2022-08-21T10:35:29;24.70;99.90
831;DHT22;397;50.564;7.272;2022-08-21T10:41:14;24.90;99.90
831;DHT22;397;50.564;7.272;2022-08-21T10:43:57;24.80;99.90
831;DHT22;397;50.564;7.272;2022-08-21T10:49:39;25.00;99.90
831;DHT22;397;50.564;7.272;2022-08-21T10:52:28;25.00;99.90
831;DHT22;397;50.564;7.272;2022-08-21T10:55:10;25.00;99.90
831;DHT22;397;50.564;7.272;2022-08-21T11:03:21;24.90;99.90
831;DHT22;397;50.564;7.272;2022-08-21T11:05:54;25.00;99.90
831;DHT22;397;50.564;7.272;2022-08-21T11:08:43;25.10;99.90
831;DHT22;397;50.564;7.272;2022-08-21T11:11:22;25.20;99.90
831;DHT22;397;50.564;7.272;2022-08-21T11:13:58;25.00;99.90
831;DHT22;397;50.564;7.272;2022-08-21T11:16:36;25.20;99.90
831;DHT22;397;50.564;7.272;2022-08-21T11:19:13;25.40;99.90
831;DHT22;397;50.564;7.272;2022-08-21T11:21:45;25.40;99.90
831;DHT22;397;50.564;7.272;2022-08-21T11:29:39;25.50;99.90
831;DHT22;397;50.564;7.272;2022-08-21T11:43:24;25.80;99.10
831;DHT22;397;50.564;7.272;2022-08-21T11:45:56;25.50;99.90
831;DHT22;397;50.564;7.272;2022-08-21T11:50:58;25.40;99.60
831;DHT22;397;50.564;7.272;2022-08-21T11:56:18;25.20;98.60
831;DHT22;397;50.564;7.272;2022-08-21T11:58:45;25.40;99.10
831;DHT22;397;50.564;7.272;2022-08-21T12:01:32;25.50;98.80
831;DHT22;397;50.564;7.272;2022-08-21T12:04:06;25.50;98.00
831;DHT22;397;50.564;7.272;2022-08-21T12:06:36;25.70;97.80
831;DHT22;397;50.564;7.272;2022-08-21T12:09:04;25.60;97.20
831;DHT22;397;50.564;7.272;2022-08-21T12:11:31;25.60;97.70
831;DHT22;397;50.564;7.272;2022-08-21T12:16:38;25.90;97.20
831;DHT22;397;50.564;7.272;2022-08-21T12:22:07;25.80;97.00
831;DHT22;397;50.564;7.272;2022-08-21T12:24:48;25.80;96.80
831;DHT22;397;50.564;7.272;2022-08-21T12:27:28;25.90;96.80
831;DHT22;397;50.564;7.272;2022-08-21T12:32:43;25.70;95.80
831;DHT22;397;50.564;7.272;2022-08-21T12:35:10;25.90;95.80
831;DHT22;397;50.564;7.272;2022-08-21T12:40:48;26.00;95.70
831;DHT22;397;50.564;7.272;2022-08-21T12:43:25;26.10;95.10
831;DHT22;397;50.564;7.272;2022-08-21T12:45:50;26.30;94.40
831;DHT22;397;50.564;7.272;2022-08-21T12:48:26;26.20;94.30
831;DHT22;397;50.564;7.272;2022-08-21T12:50:56;26.10;94.50
831;DHT22;397;50.564;7.272;2022-08-21T12:53:58;26.10;95.40
831;DHT22;397;50.564;7.272;2022-08-21T12:56:24;26.30;95.20
831;DHT22;397;50.564;7.272;2022-08-21T12:58:54;26.30;94.60
831;DHT22;397;50.564;7.272;2022-08-21T13:01:30;26.30;94.20
831;DHT22;397;50.564;7.272;2022-08-21T13:04:02;26.30;93.70
831;DHT22;397;50.564;7.272;2022-08-21T13:06:32;26.20;92.60
831;DHT22;397;50.564;7.272;2022-08-21T13:09:05;26.10;92.90
831;DHT22;397;50.564;7.272;2022-08-21T13:11:33;26.20;93.00
831;DHT22;397;50.564;7.272;2022-08-21T13:14:03;26.20;92.50
831;DHT22;397;50.564;7.272;2022-08-21T13:16:32;26.30;93.00
831;DHT22;397;50.564;7.272;2022-08-21T13:19:04;26.50;93.10
831;DHT22;397;50.564;7.272;2022-08-21T13:21:40;26.60;92.20
831;DHT22;397;50.564;7.272;2022-08-21T13:24:20;26.60;92.10
831;DHT22;397;50.564;7.272;2022-08-21T13:26:49;26.60;92.30
831;DHT22;397;50.564;7.272;2022-08-21T13:29:20;26.70;92.70
831;DHT22;397;50.564;7.272;2022-08-21T13:31:53;26.80;92.20
831;DHT22;397;50.564;7.272;2022-08-21T13:34:24;26.90;91.70
831;DHT22;397;50.564;7.272;2022-08-21T13:36:54;26.80;92.00
831;DHT22;397;50.564;7.272;2022-08-21T13:39:23;26.80;92.40
831;DHT22;397;50.564;7.272;2022-08-21T13:41:54;26.90;92.00
831;DHT22;397;50.564;7.272;2022-08-21T13:44:23;26.60;90.80
831;DHT22;397;50.564;7.272;2022-08-21T13:46:54;26.40;91.80
831;DHT22;397;50.564;7.272;2022-08-21T13:49:26;26.70;91.10
831;DHT22;397;50.564;7.272;2022-08-21T13:51:52;26.60;90.60
831;DHT22;397;50.564;7.272;2022-08-21T13:54:37;26.50;90.00
831;DHT22;397;50.564;7.272;2022-08-21T13:57:18;26.40;90.40
831;DHT22;397;50.564;7.272;2022-08-21T13:59:46;26.50;91.20
831;DHT22;397;50.564;7.272;2022-08-21T14:02:19;26.40;91.00
831;DHT22;397;50.564;7.272;2022-08-21T14:04:59;26.40;91.40
831;DHT22;397;50.564;7.272;2022-08-21T14:07:36;26.40;91.00
831;DHT22;397;50.564;7.272;2022-08-21T14:10:15;26.50;91.00
831;DHT22;397;50.564;7.272;2022-08-21T14:12:48;26.50;91.20
831;DHT22;397;50.564;7.272;2022-08-21T14:15:18;26.50;91.50
831;DHT22;397;50.564;7.272;2022-08-21T14:17:46;26.40;90.60
831;DHT22;397;50.564;7.272;2022-08-21T14:20:35;26.40;92.20
831;DHT22;397;50.564;7.272;2022-08-21T14:23:03;26.50;91.50
831;DHT22;397;50.564;7.272;2022-08-21T14:25:46;26.40;90.30
831;DHT22;397;50.564;7.272;2022-08-21T14:28:15;26.30;90.40
831;DHT22;397;50.564;7.272;2022-08-21T14:30:42;26.40;91.10
831;DHT22;397;50.564;7.272;2022-08-21T14:33:14;26.60;91.50
831;DHT22;397;50.564;7.272;2022-08-21T14:35:41;26.40;89.10
831;DHT22;397;50.564;7.272;2022-08-21T14:38:20;26.40;90.00
831;DHT22;397;50.564;7.272;2022-08-21T14:40:43;26.40;90.30
831;DHT22;397;50.564;7.272;2022-08-21T14:43:12;26.40;89.80
831;DHT22;397;50.564;7.272;2022-08-21T14:45:39;26.50;91.00
831;DHT22;397;50.564;7.272;2022-08-21T14:48:07;26.50;89.90
831;DHT22;397;50.564;7.272;2022-08-21T14:50:35;26.40;89.70
831;DHT22;397;50.564;7.272;2022-08-21T14:53:04;26.40;90.00
831;DHT22;397;50.564;7.272;2022-08-21T14:55:31;26.30;90.00
831;DHT22;397;50.564;7.272;2022-08-21T14:58:04;26.20;89.50
831;DHT22;397;50.564;7.272;2022-08-21T15:00:31;26.20;89.90
831;DHT22;397;50.564;7.272;2022-08-21T15:02:59;26.10;89.80
831;DHT22;397;50.564;7.272;2022-08-21T15:05:26;26.10;89.50
831;DHT22;397;50.564;7.272;2022-08-21T15:07:54;26.10;88.80
831;DHT22;397;50.564;7.272;2022-08-21T15:10:21;26.10;88.60
831;DHT22;397;50.564;7.272;2022-08-21T15:12:49;26.20;90.20
831;DHT22;397;50.564;7.272;2022-08-21T15:15:16;26.20;88.00
831;DHT22;397;50.564;7.272;2022-08-21T15:17:44;26.30;90.80
831;DHT22;397;50.564;7.272;2022-08-21T15:20:11;26.30;89.20
831;DHT22;397;50.564;7.272;2022-08-21T15:22:40;26.30;89.20
831;DHT22;397;50.564;7.272;2022-08-21T15:25:08;26.30;89.40
831;DHT22;397;50.564;7.272;2022-08-21T15:27:36;26.30;90.50
831;DHT22;397;50.564;7.272;2022-08-21T15:30:04;26.40;90.00
831;DHT22;397;50.564;7.272;2022-08-21T15:32:32;26.50;91.20
831;DHT22;397;50.564;7.272;2022-08-21T15:34:59;26.40;90.60
831;DHT22;397;50.564;7.272;2022-08-21T15:37:28;26.50;90.90
831;DHT22;397;50.564;7.272;2022-08-21T15:39:56;26.50;90.50
831;DHT22;397;50.564;7.272;2022-08-21T15:42:24;26.40;90.90
831;DHT22;397;50.564;7.272;2022-08-21T15:44:54;26.40;90.70
831;DHT22;397;50.564;7.272;2022-08-21T15:47:29;26.50;90.80
831;DHT22;397;50.564;7.272;2022-08-21T15:49:56;26.40;90.50
831;DHT22;397;50.564;7.272;2022-08-21T15:52:23;26.50;90.60
831;DHT22;397;50.564;7.272;2022-08-21T15:54:51;26.50;91.30
831;DHT22;397;50.564;7.272;2022-08-21T15:57:21;26.30;91.10
831;DHT22;397;50.564;7.272;2022-08-21T15:59:59;26.30;91.60
831;DHT22;397;50.564;7.272;2022-08-21T16:02:29;26.30;91.20
831;DHT22;397;50.564;7.272;2022-08-21T16:04:57;26.30;91.10
831;DHT22;397;50.564;7.272;2022-08-21T16:07:25;26.40;90.70
831;DHT22;397;50.564;7.272;2022-08-21T16:09:52;26.40;91.30
831;DHT22;397;50.564;7.272;2022-08-21T16:12:23;26.40;91.30
831;DHT22;397;50.564;7.272;2022-08-21T16:14:52;26.30;92.10
831;DHT22;397;50.564;7.272;2022-08-21T16:17:23;26.20;92.70
831;DHT22;397;50.564;7.272;2022-08-21T16:19:50;26.20;92.40
831;DHT22;397;50.564;7.272;2022-08-21T16:22:18;26.10;92.40
831;DHT22;397;50.564;7.272;2022-08-21T16:24:46;26.10;92.60
831;DHT22;397;50.564;7.272;2022-08-21T16:27:13;26.10;92.90
831;DHT22;397;50.564;7.272;2022-08-21T16:29:42;26.10;92.90
831;DHT22;397;50.564;7.272;2022-08-21T16:32:10;26.10;92.90
831;DHT22;397;50.564;7.272;2022-08-21T16:34:41;26.00;93.00
831;DHT22;397;50.564;7.272;2022-08-21T16:37:09;25.80;93.10
831;DHT22;397;50.564;7.272;2022-08-21T16:39:36;25.80;93.70
831;DHT22;397;50.564;7.272;2022-08-21T16:42:04;25.80;93.50
831;DHT22;397;50.564;7.272;2022-08-21T16:44:33;25.70;93.90
831;DHT22;397;50.564;7.272;2022-08-21T16:47:01;25.60;94.00
831;DHT22;397;50.564;7.272;2022-08-21T16:49:28;25.60;94.20
831;DHT22;397;50.564;7.272;2022-08-21T16:51:57;25.50;94.20
831;DHT22;397;50.564;7.272;2022-08-21T16:54:25;25.50;94.70
831;DHT22;397;50.564;7.272;2022-08-21T16:56:53;25.40;94.90
831;DHT22;397;50.564;7.272;2022-08-21T16:59:20;25.40;95.10
831;DHT22;397;50.564;7.272;2022-08-21T17:01:48;25.40;95.30
831;DHT22;397;50.564;7.272;2022-08-21T17:04:16;25.40;94.90
831;DHT22;397;50.564;7.272;2022-08-21T17:06:44;25.30;95.00
831;DHT22;397;50.564;7.272;2022-08-21T17:09:11;25.30;95.30
831;DHT22;397;50.564;7.272;2022-08-21T17:11:41;25.20;95.10
831;DHT22;397;50.564;7.272;2022-08-21T17:14:16;25.10;95.40
831;DHT22;397;50.564;7.272;2022-08-21T17:16:43;25.10;95.00
831;DHT22;397;50.564;7.272;2022-08-21T17:19:10;25.00;95.20
831;DHT22;397;50.564;7.272;2022-08-21T17:21:39;25.00;95.40
831;DHT22;397;50.564;7.272;2022-08-21T17:24:06;24.90;95.60
831;DHT22;397;50.564;7.272;2022-08-21T17:26:34;24.90;95.40
831;DHT22;397;50.564;7.272;2022-08-21T17:29:03;24.90;95.80
831;DHT22;397;50.564;7.272;2022-08-21T17:31:32;24.90;95.70
831;DHT22;397;50.564;7.272;2022-08-21T17:34:00;24.90;95.60
831;DHT22;397;50.564;7.272;2022-08-21T17:36:29;24.80;95.40
831;DHT22;397;50.564;7.272;2022-08-21T17:38:57;24.80;95.40
831;DHT22;397;50.564;7.272;2022-08-21T17:41:25;24.70;95.40
831;DHT22;397;50.564;7.272;2022-08-21T17:43:53;24.70;95.80
831;DHT22;397;50.564;7.272;2022-08-21T17:46:24;24.60;95.60
831;DHT22;397;50.564;7.272;2022-08-21T17:48:52;24.60;95.90
831;DHT22;397;50.564;7.272;2022-08-21T17:51:19;24.60;95.90
831;DHT22;397;50.564;7.272;2022-08-21T17:53:47;24.60;96.20
831;DHT22;397;50.564;7.272;2022-08-21T17:56:16;24.50;96.10